LFRI 181530Z AUTO 31009KT 270V340 9999 FEW036 25/15 Q1017 NOSIG

ElémentsDécodage
LFRI Station météo située sur l'aérodrome de LA-ROCHE-SUR-YON Les-Ajoncs
181530Z émis le 18 du mois à 15h30 UTC
AUTO Bulletin édité par un automate
31009KT vent du 310°, 09 noeuds
270V340 vent de direction variable entre 270° et 340°
9999 visibilité horizontale supérieure à 10 Km
FEW036 nuages rares (1/8 à 2/8) à 3600 pieds
25/15 température 25°C, point de rosée 15°C
 soit une humidité relative de 54%
Q1017 la pression au niveau de la mer (QNH) est de 1017 hPa
NOSIG Pas de changement significatif prévu au cours des deux heures suivant l'heure de l'observation